Time;durP1;ratioP1;P1;durP2;ratioP2;P2;SDS_P1;SDS_P2;PMS_P1;PMS_P2;Temp;Humidity;BMP_temperature;BMP_pressure;BME280_temperature;BME280_humidity;BME280_pressure;Samples;Min_cycle;Max_cycle;Signal;HPM_P1;HPM_P2
2022/07/05 00:00:25;;;;;;;3.90;2.40;;;;;;;11.56;100.00;93461.66;2097939;28;20039;-81
2022/07/05 00:01:26;;;;;;;2.92;2.67;;;;;;;11.57;100.00;93469.28;2106510;28;20689;-81
2022/07/05 00:02:27;;;;;;;2.55;2.30;;;;;;;11.51;100.00;93464.84;2098129;28;20028;-81
2022/07/05 00:03:28;;;;;;;5.93;2.72;;;;;;;11.51;100.00;93470.19;2098277;28;20020;-81
2022/07/05 00:04:29;;;;;;;3.45;2.17;;;;;;;11.53;100.00;93468.59;2098065;28;20372;-81
2022/07/05 00:05:30;;;;;;;5.03;2.55;;;;;;;11.50;100.00;93469.44;2106376;28;20032;-81
2022/07/05 00:06:31;;;;;;;3.47;2.63;;;;;;;11.52;100.00;93474.38;2114972;28;20076;-81
2022/07/05 00:07:32;;;;;;;3.08;2.78;;;;;;;11.42;100.00;93470.75;2114850;28;20070;-81
2022/07/05 00:08:43;;;;;;;3.92;2.50;;;;;;;11.41;100.00;93466.53;2106337;28;20024;-81
2022/07/05 00:09:52;;;;;;;3.40;2.22;;;;;;;11.42;100.00;93470.75;2107893;28;20023;-82
2022/07/05 00:10:53;;;;;;;3.58;2.33;;;;;;;11.47;100.00;93470.25;2114682;28;20020;-81
2022/07/05 00:11:55;;;;;;;3.78;2.50;;;;;;;11.49;100.00;93473.25;2114792;28;20613;-81
2022/07/05 00:12:56;;;;;;;3.45;2.70;;;;;;;11.49;100.00;93461.81;2098289;28;20052;-80
2022/07/05 00:13:57;;;;;;;2.65;2.45;;;;;;;11.47;100.00;93464.91;2089884;28;20129;-80
2022/07/05 00:14:59;;;;;;;3.47;2.40;;;;;;;11.38;100.00;93469.28;2091897;28;20032;-80
2022/07/05 00:16:00;;;;;;;2.80;2.53;;;;;;;11.39;100.00;93460.84;2098032;28;20024;-81
2022/07/05 00:17:03;;;;;;;5.57;2.88;;;;;;;11.43;100.00;93460.78;2098187;28;20031;-81
2022/07/05 00:18:04;;;;;;;4.28;2.25;;;;;;;11.34;100.00;93466.69;2096452;28;20389;-81
2022/07/05 00:19:05;;;;;;;3.15;2.60;;;;;;;11.30;100.00;93464.06;2089724;28;20064;-81
2022/07/05 00:20:07;;;;;;;3.17;2.88;;;;;;;11.36;100.00;93469.69;2089727;28;20063;-81
2022/07/05 00:21:08;;;;;;;5.32;3.10;;;;;;;11.30;100.00;93460.63;2106184;28;20038;-81
2022/07/05 00:22:09;;;;;;;2.75;2.50;;;;;;;11.19;100.00;93460.06;2089675;28;20094;-81
2022/07/05 00:23:10;;;;;;;3.85;2.33;;;;;;;11.18;100.00;93463.91;2098078;28;20029;-81
2022/07/05 00:24:11;;;;;;;4.97;2.50;;;;;;;11.22;100.00;93460.00;2106274;28;20503;-80
2022/07/05 00:25:12;;;;;;;3.90;2.80;;;;;;;11.25;100.00;93456.53;2097925;28;20473;-81
2022/07/05 00:26:13;;;;;;;3.35;2.72;;;;;;;11.22;100.00;93454.66;2089805;28;20017;-81
2022/07/05 00:27:14;;;;;;;3.17;2.63;;;;;;;11.14;100.00;93463.97;2089554;28;20075;-81
2022/07/05 00:28:15;;;;;;;3.63;2.78;;;;;;;11.14;100.00;93465.91;2099821;28;20028;-81
2022/07/05 00:29:18;;;;;;;3.13;2.83;;;;;;;11.15;100.00;93462.84;2089745;28;20433;-81
2022/07/05 00:30:19;;;;;;;5.43;3.05;;;;;;;11.17;100.00;93467.75;2090577;28;20100;-80
2022/07/05 00:31:20;;;;;;;3.28;2.97;;;;;;;11.13;100.00;93459.03;2089887;28;20021;-81
2022/07/05 00:32:21;;;;;;;3.05;2.70;;;;;;;10.99;100.00;93455.47;2089657;28;20748;-80
2022/07/05 00:33:22;;;;;;;5.22;2.97;;;;;;;11.01;100.00;93453.13;2097872;28;20043;-81
2022/07/05 00:34:24;;;;;;;5.10;2.83;;;;;;;10.88;100.00;93454.88;2089530;28;20094;-81
2022/07/05 00:35:25;;;;;;;3.65;2.80;;;;;;;10.91;100.00;93456.75;2089799;28;20024;-81
2022/07/05 00:36:26;;;;;;;3.50;3.20;;;;;;;10.92;100.00;93454.81;2106139;28;20111;-80
2022/07/05 00:37:27;;;;;;;4.05;3.00;;;;;;;10.90;100.00;93455.25;2106114;28;20067;-81
2022/07/05 00:38:28;;;;;;;4.95;3.30;;;;;;;10.95;100.00;93452.09;2097968;28;20071;-81
2022/07/05 00:39:29;;;;;;;4.72;3.33;;;;;;;10.99;100.00;93449.38;2106237;28;20107;-81
2022/07/05 00:40:30;;;;;;;3.30;3.00;;;;;;;10.94;100.00;93450.59;2106052;28;20115;-80
2022/07/05 00:41:31;;;;;;;6.75;3.30;;;;;;;10.90;100.00;93455.25;2114434;28;20035;-81
2022/07/05 00:42:32;;;;;;;3.63;2.95;;;;;;;10.95;100.00;93454.78;2105962;28;20589;-81
2022/07/05 00:43:33;;;;;;;4.20;2.92;;;;;;;10.92;100.00;93454.81;2097798;28;20036;-81
2022/07/05 00:44:39;;;;;;;2.97;2.78;;;;;;;10.80;100.00;93451.59;2097767;28;20031;-81
2022/07/05 00:45:40;;;;;;;3.33;2.92;;;;;;;10.82;100.00;93453.84;2106664;28;20443;-81
2022/07/05 00:46:43;;;;;;;3.70;2.83;;;;;;;10.83;100.00;93455.34;2105946;28;20055;-80
2022/07/05 00:47:44;;;;;;;4.40;2.90;;;;;;;10.76;100.00;93460.84;2106259;28;20020;-81
2022/07/05 00:48:45;;;;;;;3.83;2.80;;;;;;;10.78;100.00;93455.84;2097790;28;20035;-81
2022/07/05 00:49:46;;;;;;;4.55;2.85;;;;;;;10.65;100.00;93458.34;2097738;28;20024;-81
2022/07/05 00:50:47;;;;;;;4.22;2.80;;;;;;;10.63;100.00;93451.91;2106178;28;20075;-80
2022/07/05 00:51:48;;;;;;;4.25;3.05;;;;;;;10.70;100.00;93452.50;2106044;28;20032;-80
2022/07/05 00:52:53;;;;;;;4.85;3.10;;;;;;;10.78;100.00;93453.16;2097634;28;20035;-80
2022/07/05 00:53:54;;;;;;;4.70;2.90;;;;;;;10.77;100.00;93448.97;2114305;28;20020;-81
2022/07/05 00:54:55;;;;;;;3.60;3.10;;;;;;;10.83;100.00;93455.34;2114131;28;20070;-80
2022/07/05 00:55:56;;;;;;;2.92;2.60;;;;;;;10.76;100.00;93460.84;2097587;28;20048;-81
2022/07/05 00:56:58;;;;;;;2.88;2.58;;;;;;;10.73;100.00;93451.72;2097718;28;20074;-80
2022/07/05 00:57:59;;;;;;;4.50;3.05;;;;;;;10.62;100.00;93453.03;2106108;28;20135;-81
2022/07/05 00:59:00;;;;;;;3.40;2.55;;;;;;;10.70;100.00;93454.44;2097634;28;20028;-81
2022/07/05 01:00:03;;;;;;;3.65;2.65;;;;;;;10.65;100.00;93457.59;2089541;28;20021;-81
2022/07/05 01:01:06;;;;;;;5.85;2.92;;;;;;;10.68;100.00;93459.44;2098153;28;20028;-81
2022/07/05 01:02:07;;;;;;;3.30;2.70;;;;;;;10.62;100.00;93464.47;2106239;28;20020;-81
2022/07/05 01:03:08;;;;;;;4.10;2.60;;;;;;;10.62;100.00;93458.38;2105926;28;20111;-80
2022/07/05 01:04:11;;;;;;;2.80;2.60;;;;;;;10.63;100.00;93463.34;2097279;28;20071;-81
2022/07/05 01:05:12;;;;;;;4.65;2.60;;;;;;;10.61;100.00;93454.22;2090101;28;20045;-81
2022/07/05 01:06:13;;;;;;;3.42;2.78;;;;;;;10.58;100.00;93458.47;2097722;28;20477;-81
2022/07/05 01:07:15;;;;;;;3.17;2.83;;;;;;;10.62;100.00;93453.03;2089361;28;20060;-81
2022/07/05 01:08:16;;;;;;;5.03;2.92;;;;;;;10.64;100.00;93450.72;2089528;28;20468;-80
2022/07/05 01:09:19;;;;;;;4.32;2.97;;;;;;;10.68;100.00;93451.44;2097449;28;20028;-81
2022/07/05 01:10:20;;;;;;;3.03;2.72;;;;;;;10.59;100.00;93459.97;2089620;28;20075;-81
2022/07/05 01:11:22;;;;;;;3.60;2.90;;;;;;;10.55;100.00;93452.00;2097593;28;20439;-80
2022/07/05 01:12:23;;;;;;;6.07;2.70;;;;;;;10.60;100.00;93464.16;2097644;28;20032;-80
2022/07/05 01:13:25;;;;;;;3.03;2.72;;;;;;;10.59;100.00;93466.06;2089343;28;20472;-81
2022/07/05 01:14:26;;;;;;;5.22;2.80;;;;;;;10.55;100.00;93452.00;2105572;28;20048;-81
2022/07/05 01:15:27;;;;;;;4.00;2.80;;;;;;;10.48;100.00;93456.69;2097418;28;20126;-81
2022/07/05 01:16:28;;;;;;;3.90;2.75;;;;;;;10.46;100.00;93454.44;2087185;28;20025;-81
2022/07/05 01:17:29;;;;;;;3.40;2.75;;;;;;;10.52;100.00;93458.16;2097519;28;20377;-80
2022/07/05 01:18:32;;;;;;;3.08;2.78;;;;;;;10.54;100.00;93455.09;2105661;28;20048;-80
2022/07/05 01:19:33;;;;;;;3.20;2.58;;;;;;;10.54;100.00;93453.19;2097242;28;20027;-80
2022/07/05 01:20:34;;;;;;;3.05;2.78;;;;;;;10.53;100.00;93458.91;2097341;28;20074;-81
2022/07/05 01:21:41;;;;;;;2.97;2.72;;;;;;;10.46;100.00;93456.38;2096332;28;20020;-81
2022/07/05 01:22:53;;;;;;;3.15;2.58;;;;;;;10.36;100.00;93459.94;2098253;28;20504;-81
2022/07/05 01:23:54;;;;;;;3.28;2.63;;;;;;;10.34;100.00;93457.69;2092457;28;20028;-81
2022/07/05 01:24:55;;;;;;;2.72;2.53;;;;;;;10.38;100.00;93460.31;2097276;28;20055;-81
2022/07/05 01:25:59;;;;;;;4.13;2.92;;;;;;;10.42;100.00;93458.34;2089067;28;20413;-81
2022/07/05 01:27:01;;;;;;;2.92;2.70;;;;;;;10.47;100.00;93458.63;2081753;28;20035;-81
2022/07/05 01:28:03;;;;;;;5.13;2.80;;;;;;;10.43;100.00;93463.28;2089455;28;20462;-80
2022/07/05 01:29:05;;;;;;;2.88;2.50;;;;;;;10.47;100.00;93460.53;2096464;28;20063;-81
2022/07/05 01:30:07;;;;;;;2.63;2.42;;;;;;;10.39;100.00;93454.53;2105886;28;20111;-80
2022/07/05 01:31:16;;;;;;;2.65;2.38;;;;;;;10.42;100.00;93453.75;2114131;28;20480;-81
2022/07/05 01:32:17;;;;;;;4.38;2.55;;;;;;;10.46;100.00;93459.03;2105789;28;20024;-81
2022/07/05 01:33:18;;;;;;;4.00;2.72;;;;;;;10.51;100.00;93455.91;2089320;28;20496;-80
2022/07/05 01:34:19;;;;;;;3.70;2.88;;;;;;;10.52;100.00;93457.41;2105740;28;20024;-80
2022/07/05 01:35:20;;;;;;;4.28;2.88;;;;;;;10.44;100.00;93456.75;2096917;28;20056;-81
2022/07/05 01:36:22;;;;;;;5.10;2.63;;;;;;;10.36;100.00;93460.72;2105680;28;20024;-81
2022/07/05 01:37:23;;;;;;;5.57;3.17;;;;;;;10.35;100.00;93453.84;2097475;28;20028;-81
2022/07/05 01:38:27;;;;;;;3.67;2.75;;;;;;;10.33;100.00;93453.50;2097342;28;20028;-81
2022/07/05 01:39:28;;;;;;;3.55;2.63;;;;;;;10.24;100.00;93458.59;2098350;28;20028;-81
2022/07/05 01:40:29;;;;;;;7.50;3.17;;;;;;;10.28;100.00;93459.31;2097069;28;20059;-81
2022/07/05 01:41:30;;;;;;;4.18;2.78;;;;;;;10.24;100.00;93461.25;2089138;28;20463;-81
2022/07/05 01:42:32;;;;;;;3.45;2.83;;;;;;;10.20;100.00;93461.31;2097355;28;20031;-80
2022/07/05 01:43:33;;;;;;;4.10;2.78;;;;;;;10.22;100.00;93452.88;2105679;28;20016;-81
2022/07/05 01:44:34;;;;;;;3.47;2.58;;;;;;;10.11;100.00;93449.63;2107006;28;20034;-81
2022/07/05 01:45:44;;;;;;;4.40;2.60;;;;;;;10.19;100.00;93456.38;2105388;28;20031;-80
2022/07/05 01:46:46;;;;;;;5.88;2.30;;;;;;;10.20;100.00;93453.28;2090400;28;20115;-81
2022/07/05 01:47:48;;;;;;;7.32;3.00;;;;;;;10.11;100.00;93455.72;2097513;28;20102;-80
2022/07/05 01:48:53;;;;;;;5.30;2.67;;;;;;;10.12;100.00;93454.53;2089821;28;20036;-81
2022/07/05 01:49:59;;;;;;;4.53;2.60;;;;;;;10.17;100.00;93464.78;2106142;28;20024;-81
2022/07/05 01:51:09;;;;;;;3.55;2.60;;;;;;;10.11;100.00;93454.97;2097735;28;20128;-81
2022/07/05 01:52:11;;;;;;;;;;;;;;;10.09;100.00;93450.00;2106022;28;20030;-81
2022/07/05 01:53:28;;;;;;;2.90;2.22;;;;;;;10.04;100.00;93456.56;2097591;28;20376;-81
2022/07/05 01:54:29;;;;;;;3.33;2.60;;;;;;;10.12;100.00;93459.88;2082885;28;20036;-81
2022/07/05 01:55:30;;;;;;;3.78;2.50;;;;;;;10.02;100.00;93452.78;2089206;28;20044;-80
2022/07/05 01:56:31;;;;;;;2.85;2.47;;;;;;;10.00;100.00;93455.84;2096924;28;20103;-80
2022/07/05 01:57:32;;;;;;;3.63;2.65;;;;;;;10.02;100.00;93455.47;2088979;28;20548;-80
2022/07/05 01:58:34;;;;;;;2.75;2.50;;;;;;;10.06;100.00;93458.84;2108462;28;20433;-80
2022/07/05 01:59:36;;;;;;;3.83;2.65;;;;;;;10.03;100.00;93455.06;2114082;28;20110;-81
2022/07/05 02:00:47;;;;;;;2.92;2.70;;;;;;;9.99;100.00;93454.34;2105580;28;20577;-81
2022/07/05 02:01:48;;;;;;;6.32;2.90;;;;;;;10.03;100.00;93455.06;2098472;28;20032;-81
2022/07/05 02:02:50;;;;;;;5.05;2.22;;;;;;;10.08;100.00;93454.59;2088913;28;20475;-80
2022/07/05 02:03:51;;;;;;;2.72;2.53;;;;;;;10.01;100.00;93464.63;2089277;28;20032;-81
2022/07/05 02:04:52;;;;;;;4.45;2.75;;;;;;;9.93;100.00;93455.97;2097150;28;20071;-81
2022/07/05 02:05:53;;;;;;;6.88;2.97;;;;;;;10.01;100.00;93449.38;2088830;28;20135;-81
2022/07/05 02:06:54;;;;;;;2.45;2.20;;;;;;;9.98;100.00;93454.75;2105358;28;20031;-81
2022/07/05 02:07:55;;;;;;;5.85;2.90;;;;;;;9.90;100.00;93462.09;2097165;28;20031;-81
2022/07/05 02:08:56;;;;;;;3.60;2.70;;;;;;;9.96;100.00;93454.38;2089144;28;20099;-81
2022/07/05 02:09:57;;;;;;;5.40;2.85;;;;;;;9.88;100.00;93456.41;2088880;28;20420;-80
2022/07/05 02:10:58;;;;;;;5.07;2.85;;;;;;;9.85;100.00;93454.53;2088897;28;20724;-81
2022/07/05 02:11:59;;;;;;;3.90;2.70;;;;;;;9.90;100.00;93445.31;2097158;28;20416;-80
2022/07/05 02:14:08;;;;;;;;;;;;;;;9.84;100.00;93455.72;2148403;27;20101;-81
2022/07/05 02:15:09;;;;;;;3.88;2.50;;;;;;;9.80;100.00;93447.00;2130042;27;19911;-81
2022/07/05 02:16:10;;;;;;;7.75;3.00;;;;;;;9.78;100.00;93449.28;2112727;27;20015;-81
2022/07/05 02:17:11;;;;;;;4.28;2.40;;;;;;;9.83;100.00;93446.16;2121349;27;20019;-81
2022/07/05 02:18:12;;;;;;;2.92;2.60;;;;;;;9.88;100.00;93448.41;2112617;28;20552;-81
2022/07/05 02:19:13;;;;;;;2.90;2.70;;;;;;;9.91;100.00;93454.84;2117149;28;20027;-81
2022/07/05 02:20:14;;;;;;;3.22;2.80;;;;;;;9.85;100.00;93457.22;2117101;28;20130;-81
2022/07/05 02:21:15;;;;;;;3.28;2.50;;;;;;;9.76;100.00;93454.28;2108731;27;20019;-81
2022/07/05 02:22:16;;;;;;;3.30;2.30;;;;;;;9.72;100.00;93457.00;2121306;27;20028;-82
2022/07/05 02:23:17;;;;;;;3.03;2.80;;;;;;;9.69;100.00;93449.78;2112655;28;20028;-81
2022/07/05 02:24:19;;;;;;;2.60;2.38;;;;;;;9.77;100.00;93453.88;2112917;28;20031;-81
2022/07/05 02:25:21;;;;;;;4.32;2.90;;;;;;;9.82;100.00;93455.34;2104937;28;20024;-82
2022/07/05 02:26:22;;;;;;;2.60;2.40;;;;;;;9.81;100.00;93446.59;2104663;28;20028;-81
2022/07/05 02:27:24;;;;;;;3.35;2.60;;;;;;;9.77;100.00;93445.88;2114181;27;20093;-81
2022/07/05 02:28:25;;;;;;;7.50;2.85;;;;;;;9.65;100.00;93451.75;2121145;27;20027;-82
2022/07/05 02:29:26;;;;;;;2.88;2.53;;;;;;;9.59;100.00;93446.09;2121299;28;20527;-81
2022/07/05 02:30:27;;;;;;;2.55;2.35;;;;;;;9.63;100.00;93447.97;2112736;28;20564;-81
2022/07/05 02:31:28;;;;;;;3.25;2.47;;;;;;;9.65;100.00;93456.31;2116903;27;20032;-81
2022/07/05 02:32:31;;;;;;;3.58;2.70;;;;;;;9.72;100.00;93446.31;2112759;28;20022;-81
2022/07/05 02:33:32;;;;;;;3.38;2.58;;;;;;;9.76;100.00;93446.28;2112888;28;20049;-81
2022/07/05 02:34:33;;;;;;;2.95;2.65;;;;;;;9.83;100.00;93451.50;2112803;28;20103;-81
2022/07/05 02:35:34;;;;;;;2.60;2.20;;;;;;;9.71;100.00;93447.50;2112602;28;20134;-82
2022/07/05 02:36:35;;;;;;;3.65;2.20;;;;;;;9.72;100.00;93443.66;2107010;28;20607;-81
2022/07/05 02:37:36;;;;;;;3.83;2.25;;;;;;;9.72;100.00;93448.25;2121296;27;20038;-81
2022/07/05 02:38:38;;;;;;;3.50;2.30;;;;;;;9.69;100.00;93441.78;2128388;27;20022;-81
2022/07/05 02:39:39;;;;;;;6.05;2.20;;;;;;;9.70;100.00;93445.97;2130153;27;20184;-80
2022/07/05 02:40:40;;;;;;;4.70;2.60;;;;;;;9.70;100.00;93445.19;2138356;27;20026;-81
2022/07/05 02:41:41;;;;;;;4.72;2.50;;;;;;;9.68;100.00;93448.28;2114506;28;20024;-81
2022/07/05 02:42:42;;;;;;;4.65;2.70;;;;;;;9.71;100.00;93446.72;2121392;27;20392;-81
2022/07/05 02:43:43;;;;;;;5.03;2.50;;;;;;;9.58;100.00;93447.25;2129593;27;20487;-82
2022/07/05 02:44:44;;;;;;;5.25;2.70;;;;;;;9.70;100.00;93445.19;2104314;28;20075;-81
2022/07/05 02:45:45;;;;;;;4.50;2.50;;;;;;;9.69;100.00;93446.38;2095899;28;20043;-81
2022/07/05 02:46:46;;;;;;;5.15;2.33;;;;;;;9.65;100.00;93442.97;2104298;28;20032;-81
2022/07/05 02:48:00;;;;;;;7.68;2.60;;;;;;;9.74;100.00;93448.56;2112579;28;20023;-81
2022/07/05 02:49:01;;;;;;;3.88;2.65;;;;;;;9.73;100.00;93439.06;2122813;27;20102;-81
2022/07/05 02:50:05;;;;;;;3.20;2.53;;;;;;;9.74;100.00;93454.66;2112588;28;20026;-81
2022/07/05 02:51:06;;;;;;;3.92;2.50;;;;;;;9.74;100.00;93443.25;2112071;27;20028;-81
2022/07/05 02:52:07;;;;;;;3.78;2.50;;;;;;;9.68;100.00;93444.84;2120937;27;20023;-81
2022/07/05 02:53:08;;;;;;;4.85;2.38;;;;;;;9.57;100.00;93440.41;2112433;28;20541;-81
2022/07/05 02:54:09;;;;;;;4.03;2.70;;;;;;;9.64;100.00;93444.16;2104136;28;20024;-80
2022/07/05 02:55:10;;;;;;;3.80;2.40;;;;;;;9.69;100.00;93443.69;2112640;27;20039;-81
2022/07/05 02:56:11;;;;;;;5.55;2.50;;;;;;;9.77;100.00;93443.19;2120970;27;20050;-81
2022/07/05 02:57:12;;;;;;;3.80;2.35;;;;;;;9.77;100.00;93442.44;2120863;28;20550;-81
2022/07/05 02:58:13;;;;;;;3.53;2.50;;;;;;;9.67;100.00;93438.00;2112644;27;20051;-81
2022/07/05 02:59:14;;;;;;;4.25;2.65;;;;;;;9.66;100.00;93444.50;2129681;27;20022;-82
2022/07/05 03:00:15;;;;;;;6.03;2.42;;;;;;;9.62;100.00;93441.13;2120719;28;20022;-81
2022/07/05 03:01:16;;;;;;;2.60;2.40;;;;;;;9.54;100.00;93441.22;2112198;28;20037;-81
2022/07/05 03:02:17;;;;;;;3.95;2.20;;;;;;;9.57;100.00;93443.09;2104021;28;20028;-80
2022/07/05 03:03:18;;;;;;;3.33;2.25;;;;;;;9.51;100.00;93444.69;2095912;28;20016;-81
2022/07/05 03:04:19;;;;;;;3.35;2.15;;;;;;;9.65;100.00;93446.41;2104260;28;20024;-81
2022/07/05 03:05:20;;;;;;;4.47;2.50;;;;;;;9.71;100.00;93452.06;2112150;28;20031;-81
2022/07/05 03:06:21;;;;;;;2.80;2.13;;;;;;;9.76;100.00;93448.94;2104088;28;20074;-81
2022/07/05 03:07:22;;;;;;;4.63;2.42;;;;;;;9.69;100.00;93449.03;2105110;28;20028;-81
2022/07/05 03:08:29;;;;;;;4.43;2.50;;;;;;;9.60;100.00;93449.53;2121025;27;20362;-82
2022/07/05 03:09:30;;;;;;;2.83;2.63;;;;;;;9.66;100.00;93447.16;2113444;28;20396;-81
2022/07/05 03:10:31;;;;;;;5.28;2.97;;;;;;;9.51;100.00;93450.00;2105563;28;20063;-81
2022/07/05 03:11:32;;;;;;;2.60;2.38;;;;;;;9.51;100.00;93451.94;2104042;28;20110;-82
2022/07/05 03:12:33;;;;;;;2.63;2.42;;;;;;;9.56;100.00;93454.16;2112431;28;20039;-81
2022/07/05 03:13:33;;;;;;;2.97;2.58;;;;;;;9.53;100.00;93453.06;2095247;28;20043;-82
2022/07/05 03:14:34;;;;;;;3.42;2.40;;;;;;;9.50;100.00;93450.41;2095809;28;20115;-82
2022/07/05 03:15:35;;;;;;;2.90;2.70;;;;;;;9.51;100.00;93451.94;2098212;28;20362;-81
2022/07/05 03:16:38;;;;;;;4.20;3.00;;;;;;;9.57;100.00;93451.09;2103907;28;20540;-82
2022/07/05 03:17:39;;;;;;;2.78;2.50;;;;;;;9.64;100.00;93449.47;2112774;28;20016;-81
2022/07/05 03:18:40;;;;;;;6.03;3.20;;;;;;;9.70;100.00;93454.00;2112386;28;20032;-81
2022/07/05 03:19:41;;;;;;;3.00;2.10;;;;;;;9.78;100.00;93457.31;2112478;28;20075;-81
2022/07/05 03:20:42;;;;;;;2.92;2.47;;;;;;;9.79;100.00;93458.84;2112320;27;20035;-81
2022/07/05 03:21:43;;;;;;;2.92;2.58;;;;;;;9.75;100.00;93453.53;2112621;28;20434;-82
2022/07/05 03:22:44;;;;;;;4.40;2.42;;;;;;;9.68;100.00;93456.28;2112589;28;20107;-81
2022/07/05 03:23:45;;;;;;;2.90;2.22;;;;;;;9.69;100.00;93460.47;2112240;28;20012;-81
2022/07/05 03:24:46;;;;;;;7.10;2.60;;;;;;;9.57;100.00;93459.09;2111380;28;20369;-81
2022/07/05 03:25:47;;;;;;;2.70;2.50;;;;;;;9.55;100.00;93457.97;2097585;28;20025;-81
2022/07/05 03:26:48;;;;;;;2.85;2.40;;;;;;;9.48;100.00;93450.06;2102979;28;20490;-81
2022/07/05 03:27:49;;;;;;;3.55;2.60;;;;;;;9.41;100.00;93458.91;2106616;28;20023;-81
2022/07/05 03:29:04;;;;;;;2.28;2.13;;;;;;;9.48;100.00;93460.72;2098159;28;20033;-81
2022/07/05 03:30:06;;;;;;;4.53;2.28;;;;;;;9.53;100.00;93468.31;2110691;27;20110;-81
2022/07/05 03:31:07;;;;;;;4.63;2.55;;;;;;;9.49;100.00;93460.34;2103135;28;20540;-81
2022/07/05 03:32:08;;;;;;;3.33;2.42;;;;;;;9.45;100.00;93464.97;2090075;28;20090;-81
2022/07/05 03:33:09;;;;;;;3.28;2.42;;;;;;;9.40;100.00;93462.00;2098292;28;20028;-81
2022/07/05 03:34:10;;;;;;;5.40;2.40;;;;;;;9.44;100.00;93468.00;2098257;28;20024;-81
2022/07/05 03:35:11;;;;;;;3.35;2.47;;;;;;;9.48;100.00;93469.50;2098472;28;20016;-81
2022/07/05 03:36:12;;;;;;;3.90;2.45;;;;;;;9.45;100.00;93464.97;2098137;28;20043;-81
2022/07/05 03:37:13;;;;;;;3.85;2.50;;;;;;;9.39;100.00;93469.22;2098289;28;20021;-81
2022/07/05 03:38:14;;;;;;;2.38;2.15;;;;;;;9.46;100.00;93463.03;2098497;28;20028;-81
2022/07/05 03:39:15;;;;;;;4.20;2.85;;;;;;;9.47;100.00;93461.88;2098144;28;20381;-80
2022/07/05 03:40:16;;;;;;;3.22;2.30;;;;;;;9.48;100.00;93461.50;2098171;28;20024;-81
2022/07/05 03:41:18;;;;;;;4.00;2.58;;;;;;;9.42;100.00;93465.75;2098273;28;20086;-81
2022/07/05 03:42:18;;;;;;;3.42;2.53;;;;;;;9.47;100.00;93467.22;2106459;28;20024;-81
2022/07/05 03:43:20;;;;;;;2.72;2.53;;;;;;;9.54;100.00;93464.47;2105599;28;20403;-81
2022/07/05 03:44:21;;;;;;;3.40;2.50;;;;;;;9.47;100.00;93470.63;2111743;28;20034;-81
2022/07/05 03:45:22;;;;;;;3.05;2.40;;;;;;;9.33;100.00;93462.81;2106723;28;20020;-82
2022/07/05 03:46:23;;;;;;;4.97;3.38;;;;;;;9.35;100.00;93471.19;2106350;28;20073;-81
2022/07/05 03:47:24;;;;;;;7.88;3.00;;;;;;;9.37;100.00;93468.88;2097529;28;20028;-81
2022/07/05 03:48:25;;;;;;;4.47;2.60;;;;;;;9.42;100.00;93465.00;2098076;28;20553;-81
2022/07/05 03:49:26;;;;;;;4.32;2.92;;;;;;;9.41;100.00;93474.91;2114539;28;20047;-80
2022/07/05 03:50:27;;;;;;;2.92;2.60;;;;;;;9.46;100.00;93465.72;2106113;28;20046;-81
2022/07/05 03:51:28;;;;;;;4.43;2.45;;;;;;;9.47;100.00;93473.31;2114813;28;20058;-81
2022/07/05 03:52:30;;;;;;;2.50;2.30;;;;;;;9.45;100.00;93474.88;2114838;28;20475;-81
2022/07/05 03:53:31;;;;;;;2.92;2.65;;;;;;;9.43;100.00;93477.19;2106294;28;20032;-81
2022/07/05 03:54:31;;;;;;;8.35;2.42;;;;;;;9.30;100.00;93477.69;2106455;28;20031;-81
2022/07/05 03:55:32;;;;;;;2.92;2.25;;;;;;;9.38;100.00;93475.72;2106428;28;20081;-81
2022/07/05 03:56:33;;;;;;;4.85;2.63;;;;;;;9.40;100.00;93475.31;2106473;28;20055;-81
2022/07/05 03:57:34;;;;;;;3.38;2.55;;;;;;;9.34;100.00;93475.00;2097996;28;20031;-80
2022/07/05 03:58:35;;;;;;;6.82;2.83;;;;;;;9.40;100.00;93488.66;2098267;28;20052;-81
2022/07/05 03:59:36;;;;;;;3.08;2.42;;;;;;;9.41;100.00;93482.91;2106409;28;20047;-81
2022/07/05 04:00:37;;;;;;;6.88;2.10;;;;;;;9.40;100.00;93486.00;2097868;28;20021;-81
2022/07/05 04:01:38;;;;;;;8.10;2.20;;;;;;;9.40;100.00;93488.66;2098161;28;20028;-81
2022/07/05 04:02:39;;;;;;;3.70;2.13;;;;;;;9.38;100.00;93482.97;2108656;28;20055;-81
2022/07/05 04:03:40;;;;;;;3.95;2.40;;;;;;;9.37;100.00;93481.44;2101635;28;20024;-81
2022/07/05 04:04:42;;;;;;;4.28;2.30;;;;;;;9.42;100.00;93487.09;2098134;28;20052;-82
2022/07/05 04:05:43;;;;;;;2.72;2.30;;;;;;;9.47;100.00;93486.66;2114796;28;20085;-81
2022/07/05 04:06:45;;;;;;;2.55;1.90;;;;;;;9.42;100.00;93481.75;2114969;28;20077;-82
2022/07/05 04:07:48;;;;;;;5.70;2.60;;;;;;;9.43;100.00;93480.59;2106654;28;20085;-82
2022/07/05 04:08:49;;;;;;;2.70;2.25;;;;;;;9.52;100.00;93482.78;2106786;28;20504;-80
2022/07/05 04:09:50;;;;;;;3.38;2.20;;;;;;;9.56;100.00;93491.50;2111517;28;20053;-81
2022/07/05 04:10:51;;;;;;;3.08;1.90;;;;;;;9.52;100.00;93480.88;2114628;28;20023;-81
2022/07/05 04:11:53;;;;;;;3.28;2.10;;;;;;;9.59;100.00;93486.13;2106270;28;20075;-81
2022/07/05 04:12:54;;;;;;;3.67;2.42;;;;;;;9.59;100.00;93493.38;2106486;28;20031;-81
2022/07/05 04:13:55;;;;;;;4.75;2.72;;;;;;;9.48;100.00;93496.19;2110157;27;20032;-81
2022/07/05 04:14:57;;;;;;;4.38;2.10;;;;;;;9.50;100.00;93491.19;2123268;27;20034;-82
2022/07/05 04:15:58;;;;;;;4.40;2.40;;;;;;;9.50;100.00;93493.88;2114946;27;20468;-81
2022/07/05 04:16:59;;;;;;;3.10;2.33;;;;;;;9.56;100.00;93494.19;2114722;28;20019;-81
2022/07/05 04:18:00;;;;;;;6.25;2.40;;;;;;;9.61;100.00;93493.72;2097872;28;20059;-81
2022/07/05 04:19:01;;;;;;;3.42;2.47;;;;;;;9.61;100.00;93488.41;2106044;28;20028;-82
2022/07/05 04:20:02;;;;;;;3.38;2.10;;;;;;;9.67;100.00;93494.06;2097995;28;20408;-81
2022/07/05 04:21:03;;;;;;;3.72;2.30;;;;;;;9.65;100.00;93493.69;2097984;28;20020;-82
2022/07/05 04:22:05;;;;;;;5.65;3.22;;;;;;;9.69;100.00;93491.75;2098075;28;20028;-83
2022/07/05 04:23:06;;;;;;;2.28;2.10;;;;;;;9.71;100.00;93492.88;2106347;28;20031;-82
2022/07/05 04:24:07;;;;;;;3.25;2.35;;;;;;;9.72;100.00;93493.63;2114501;28;20015;-81
2022/07/05 04:25:17;;;;;;;6.25;2.65;;;;;;;9.75;100.00;93496.25;2113245;28;20020;-82
2022/07/05 04:26:18;;;;;;;4.70;2.20;;;;;;;9.79;100.00;93499.63;2103337;28;20020;-81
2022/07/05 04:27:20;;;;;;;3.30;2.20;;;;;;;9.81;100.00;93497.31;2099145;28;20032;-81
2022/07/05 04:28:21;;;;;;;5.07;2.22;;;;;;;9.82;100.00;93495.38;2104441;28;20020;-80
2022/07/05 04:29:22;;;;;;;2.70;2.15;;;;;;;9.84;100.00;93495.75;2104277;28;20027;-82
2022/07/05 04:30:25;;;;;;;4.25;2.22;;;;;;;9.86;100.00;93498.78;2099461;28;20033;-81
2022/07/05 04:31:26;;;;;;;4.63;2.03;;;;;;;9.85;100.00;93497.25;2106408;27;20187;-84
2022/07/05 04:32:27;;;;;;;2.85;2.40;;;;;;;9.88;100.00;93493.81;2113298;28;20024;-81
2022/07/05 04:33:28;;;;;;;4.85;2.40;;;;;;;9.89;100.00;93489.22;2113478;28;20047;-82
2022/07/05 04:34:29;;;;;;;2.38;2.08;;;;;;;9.89;100.00;93497.97;2102718;28;20024;-82
2022/07/05 04:35:30;;;;;;;2.45;2.10;;;;;;;9.94;100.00;93494.84;2105091;28;20024;-82
2022/07/05 04:36:31;;;;;;;4.15;2.20;;;;;;;9.98;100.00;93494.81;2096259;28;20028;-82
2022/07/05 04:37:32;;;;;;;6.68;2.50;;;;;;;10.01;100.00;93494.03;2098155;28;20048;-81
2022/07/05 04:38:33;;;;;;;3.70;2.30;;;;;;;10.01;100.00;93497.44;2096766;28;20021;-82
2022/07/05 04:39:34;;;;;;;3.80;2.65;;;;;;;10.00;100.00;93497.81;2096415;28;20020;-81
2022/07/05 04:40:35;;;;;;;2.20;2.00;;;;;;;10.06;100.00;93496.97;2104851;28;20035;-81
2022/07/05 04:41:35;;;;;;;1.95;1.83;;;;;;;10.06;100.00;93496.97;2124073;27;20046;-81
2022/07/05 04:42:37;;;;;;;2.53;2.10;;;;;;;10.08;100.00;93489.31;2109883;28;20056;-81
2022/07/05 04:43:38;;;;;;;3.22;2.22;;;;;;;10.12;100.00;93497.28;2095467;28;20028;-82
2022/07/05 04:44:39;;;;;;;2.90;2.50;;;;;;;10.14;100.00;93496.88;2095464;28;20666;-81
2022/07/05 04:45:40;;;;;;;2.67;1.90;;;;;;;10.18;100.00;93497.56;2113260;28;20778;-81
2022/07/05 04:46:41;;;;;;;4.03;2.28;;;;;;;10.17;100.00;93496.81;2123110;27;20080;-82
2022/07/05 04:47:41;;;;;;;6.13;2.40;;;;;;;10.21;100.00;93494.84;2113893;28;20028;-82
2022/07/05 04:48:43;;;;;;;3.00;2.22;;;;;;;10.23;100.00;93500.56;2096766;28;20071;-81
2022/07/05 04:49:44;;;;;;;2.70;2.08;;;;;;;10.26;100.00;93499.03;2096616;28;20039;-81